Latest Weather Observations for Evans Head

IDN60801

Issued at 3:13 pm EST Saturday 15 June 2024 (issued every 10 minutes, with the page automatically refreshed every 10 minutes)

About weather observations | Map of weather stations | Latest weather observations for NSW | Other Formats
Station Details ID: 058212 Name: EVANS HEAD RAAF BOMBING RANGE AWS Lat: -29.18 Lon: 153.40 Height: 62.5 m
Data from the previous 72 hours. | See also: Recent months at Evans Head
Date/Time
EST
Temp
°C
App
Temp
°C
Dew
Point
°C
Rel
Hum
%
Delta-T
°C
Wind Press
QNH
hPa
Press
MSL
hPa
Rain since
9am
mm
Dir  Spd
km/h
Gust
km/h
Spd
kts
Gust
kts
15/03:00pm 17.3 14.4 9.5 60 4.1 SSW 15 24 8 13 1010.4 1010.4 0.2
15/02:30pm 17.6 14.6 9.2 58 4.4 SSW 15 20 8 11 1010.3 1010.3 0.2
15/02:00pm 17.4 14.4 9.3 59 4.2 S 15 26 8 14 1010.4 1010.4 0.2
15/01:30pm 17.4 14.3 8.8 57 4.5 S 15 22 8 12 1010.4 1010.4 0.2
15/01:00pm 17.3 15.2 9.7 61 4.0 SSW 11 24 6 13 1010.7 1010.7 0.2
15/12:30pm 15.9 13.2 9.1 64 3.5 SW 13 22 7 12 1011.1 1011.1 0.2
15/12:00pm 14.7 13.1 10.1 74 2.4 WSW 9 13 5 7 1011.5 1011.5 0.2
15/11:30am 13.8 12.1 9.8 77 2.1 WSW 9 13 5 7 1012.1 1012.1 0.2
15/11:00am 13.9 12.3 10.1 78 2.0 SW 9 17 5 9 1012.6 1012.6 0.2
15/10:30am 13.1 11.9 10.3 83 1.5 WSW 7 11 4 6 1013.1 1013.1 0.2
15/10:00am 12.7 11.1 10.2 85 1.3 WSW 9 15 5 8 1013.1 1013.1 0.2
15/09:30am 13.6 12.8 11.1 85 1.3 NW 6 11 3 6 1013.3 1013.2 0.0
15/09:00am 12.6 10.1 9.8 83 1.4 WSW 13 17 7 9 1013.9 1013.8 -
15/08:30am 12.0 9.3 10.4 90 0.8 WSW 15 24 8 13 1014.1 1014.0 -
15/08:00am 12.3 10.6 11.2 93 0.6 WSW 11 15 6 8 1013.8 1013.7 -
15/07:30am 11.7 9.1 10.6 93 0.6 SW 15 22 8 12 1014.0 1013.9 -
15/07:00am 11.7 9.4 10.3 91 0.7 WSW 13 17 7 9 1014.2 1014.1 -
15/06:30am 11.7 8.6 10.3 91 0.7 SW 17 28 9 15 1014.3 1014.2 -
15/06:00am 12.1 9.4 10.2 88 1.0 SW 15 20 8 11 1014.2 1014.1 -
15/05:30am 12.9 10.5 9.9 82 1.5 WSW 13 17 7 9 1013.8 1013.7 -
15/05:00am 12.6 10.5 9.6 82 1.5 W 11 15 6 8 1013.4 1013.3 -
15/04:30am 12.4 9.9 9.6 83 1.4 W 13 15 7 8 1013.1 1013.1 -
15/04:00am 12.6 10.4 9.4 81 1.6 SW 11 15 6 8 1013.3 1013.2 -
15/03:30am 12.5 10.8 9.7 83 1.4 W 9 11 5 6 1013.5 1013.4 -
15/03:00am 12.4 10.4 10.1 86 1.2 W 11 15 6 8 1013.6 1013.5 0.0
15/02:30am 12.8 10.7 9.8 82 1.5 W 11 15 6 8 1013.1 1013.1 -
15/02:00am 12.9 11.2 9.9 82 1.5 SW 9 13 5 7 1013.6 1013.5 -
15/01:30am 12.9 11.2 9.7 81 1.6 W 9 13 5 7 1013.8 1013.7 -
15/01:00am 12.9 11.2 9.9 82 1.5 WNW 9 11 5 6 1014.3 1014.2 -
15/12:30am 13.2 11.5 10.0 81 1.7 WNW 9 13 5 7 1014.3 1014.2 -
15/12:00am 13.4 11.4 10.2 81 1.7 WNW 11 15 6 8 1014.8 1014.7 -
 
Date/Time
EST
Temp
°C
App
Temp
°C
Dew
Point
°C
Rel
Hum
%
Delta-T
°C
Wind Press
QNH
hPa
Press
MSL
hPa
Rain since
9am
mm
Dir  Spd
km/h
Gust
km/h
Spd
kts
Gust
kts
14/11:30pm 13.7 12.0 9.9 78 2.0 W 9 13 5 7 1014.9 1014.8 -
14/11:00pm 13.9 11.8 9.7 76 2.2 W 11 15 6 8 1015.1 1015.0 -
14/10:30pm 14.2 12.0 9.4 73 2.5 W 11 13 6 7 1015.2 1015.1 -
14/10:00pm 14.5 11.9 9.5 72 2.6 WSW 13 15 7 8 1015.4 1015.3 -
14/09:30pm 14.1 11.7 9.9 76 2.2 W 13 15 7 8 1015.6 1015.5 -
14/09:00pm 14.5 12.5 10.1 75 2.3 W 11 17 6 9 1015.8 1015.7 0.0
14/08:30pm 14.3 12.3 10.1 76 2.2 WSW 11 15 6 8 1015.9 1015.8 -
14/08:00pm 14.3 12.3 10.1 76 2.2 WSW 11 17 6 9 1016.1 1016.0 -
14/07:30pm 14.6 12.6 10.2 75 2.3 WSW 11 15 6 8 1016.1 1016.0 -
14/07:00pm 14.6 12.7 10.4 76 2.2 WSW 11 13 6 7 1016.3 1016.2 -
14/06:30pm 14.6 12.2 10.2 75 2.3 SW 13 15 7 8 1016.0 1015.9 -
14/06:00pm 14.7 12.3 10.1 74 2.4 SW 13 15 7 8 1015.7 1015.6 -
14/05:30pm 14.8 12.8 10.0 73 2.5 SW 11 15 6 8 1015.2 1015.1 -
14/05:00pm 14.9 13.3 10.3 74 2.4 WSW 9 13 5 7 1015.5 1015.4 -
14/04:30pm 15.2 13.7 10.6 74 2.4 WSW 9 13 5 7 1015.7 1015.6 -
14/04:00pm 15.3 13.8 10.7 74 2.4 WSW 9 13 5 7 1015.6 1015.5 -
14/03:30pm 15.3 13.3 10.1 71 2.7 SW 11 17 6 9 1015.5 1015.4 -
14/03:00pm 15.8 14.4 10.8 72 2.7 SSW 9 13 5 7 1015.2 1015.1 -
14/02:30pm 15.9 14.2 10.0 68 3.1 SW 9 13 5 7 1015.3 1015.2 -
14/02:00pm 16.7 15.4 9.9 64 3.6 SSW 7 11 4 6 1015.5 1015.4 -
14/01:00pm 16.6 15.2 10.9 69 3.1 SSW 9 11 5 6 1016.2 1016.1 0.0
14/12:30pm 16.3 15.1 10.4 68 3.1 SW 7 13 4 7 1016.4 1016.3 0.0
14/12:00pm 16.7 15.1 10.1 65 3.5 W 9 13 5 7 1016.8 1016.7 0.0
14/11:30am 15.9 14.2 10.0 68 3.1 SW 9 15 5 8 1017.1 1017.0 0.0
14/11:00am 15.7 13.6 9.8 68 3.1 SW 11 15 6 8 1017.6 1017.5 0.0
14/10:30am 15.0 13.5 10.4 74 2.4 WSW 9 13 5 7 1018.3 1018.2 0.0
14/10:00am 14.6 12.4 9.4 71 2.7 W 11 15 6 8 1018.5 1018.4 0.0
14/09:30am 14.0 11.7 9.0 72 2.5 W 11 15 6 8 1018.4 1018.3 0.0
14/09:00am 13.4 11.5 8.9 74 2.3 WSW 9 13 5 7 1018.2 1018.1 0.0
14/08:30am 12.8 9.9 8.3 74 2.2 SW 13 17 7 9 1018.4 1018.3 0.0
14/08:00am 12.5 9.9 7.8 73 2.3 WSW 11 15 6 8 1018.2 1018.1 0.0
14/07:30am 12.1 9.5 7.6 74 2.2 WSW 11 15 6 8 1018.1 1018.0 0.0
14/07:00am 11.1 8.0 7.2 77 1.9 W 13 17 7 9 1017.6 1017.5 0.0
14/06:30am 11.5 8.3 7.0 74 2.2 WSW 13 17 7 9 1017.7 1017.6 0.0
14/06:00am 11.9 8.8 7.2 73 2.3 W 13 19 7 10 1017.1 1017.0 0.0
14/05:30am 12.2 9.1 7.1 71 2.5 WSW 13 17 7 9 1017.2 1017.1 0.0
14/05:00am 12.6 9.1 7.1 69 2.7 WSW 15 19 8 10 1017.3 1017.2 0.0
14/04:30am 12.7 9.2 7.2 69 2.7 WSW 15 20 8 11 1017.1 1017.0 0.0
14/04:00am 12.6 9.5 7.3 70 2.6 W 13 17 7 9 1016.9 1016.8 0.0
14/03:30am 13.0 9.5 7.2 68 2.8 WSW 15 19 8 10 1016.9 1016.8 0.0
14/03:00am 13.3 10.2 7.1 66 3.0 WSW 13 17 7 9 1017.0 1016.9 0.0
14/02:30am 14.1 10.6 7.2 63 3.4 SW 15 20 8 11 1017.0 1016.9 0.0
14/02:00am 14.5 11.0 7.3 62 3.5 SW 15 19 8 10 1017.3 1017.2 0.0
14/01:30am 14.4 10.6 7.5 63 3.4 SW 17 22 9 12 1017.6 1017.5 0.0
14/01:00am 14.2 10.0 7.3 63 3.4 SW 19 24 10 13 1017.9 1017.8 0.0
14/12:30am 14.0 10.1 7.3 64 3.3 SW 17 24 9 13 1017.7 1017.6 0.0
14/12:00am 13.9 10.0 7.2 64 3.3 SW 17 20 9 11 1017.8 1017.7 0.0
 
Date/Time
EST
Temp
°C
App
Temp
°C
Dew
Point
°C
Rel
Hum
%
Delta-T
°C
Wind Press
QNH
hPa
Press
MSL
hPa
Rain since
9am
mm
Dir  Spd
km/h
Gust
km/h
Spd
kts
Gust
kts
13/11:30pm 14.1 10.3 7.4 64 3.3 SW 17 22 9 12 1018.1 1018.0 0.0
13/11:00pm 14.0 10.3 7.8 66 3.1 WSW 17 20 9 11 1018.3 1018.2 0.0
13/10:30pm 14.0 10.3 7.8 66 3.1 WSW 17 20 9 11 1018.4 1018.3 0.0
13/10:00pm 14.2 10.8 7.7 65 3.2 WSW 15 19 8 10 1018.4 1018.3 0.0
13/09:30pm 14.3 11.0 8.0 66 3.1 SW 15 20 8 11 1018.6 1018.5 0.0
13/09:00pm 14.3 11.4 8.3 67 3.0 WSW 13 17 7 9 1018.4 1018.3 0.0
13/08:30pm 14.2 11.7 8.2 67 3.0 SW 11 17 6 9 1018.5 1018.4 0.0
13/08:00pm 14.9 11.9 7.7 62 3.6 SSW 13 19 7 10 1018.6 1018.5 0.0
13/07:30pm 14.7 11.9 8.6 67 3.1 SW 13 19 7 10 1018.2 1018.1 0.0
13/07:00pm 14.9 11.8 8.8 67 3.1 SSW 15 20 8 11 1018.3 1018.2 0.0
13/06:30pm 14.7 11.8 9.5 71 2.7 SW 15 19 8 10 1018.0 1017.9 0.0
13/06:00pm 14.9 12.3 9.5 70 2.8 WSW 13 15 7 8 1018.0 1017.9 0.0
13/05:30pm 15.2 13.0 9.3 68 3.0 SW 11 13 6 7 1017.9 1017.8 0.0
13/05:00pm 15.7 13.8 9.1 65 3.4 SSW 9 13 5 7 1017.4 1017.3 0.0
13/04:30pm 16.8 15.2 8.8 59 4.1 SW 7 9 4 5 1017.4 1017.3 0.0
13/04:00pm 17.2 15.6 8.9 58 4.3 SW 7 13 4 7 1017.2 1017.1 0.0
13/03:30pm 17.4 15.1 9.1 58 4.3 SSW 11 17 6 9 1016.8 1016.7 0.0
13/03:00pm 18.6 15.7 8.3 51 5.3 SSW 13 19 7 10 1016.4 1016.3 0.0
13/02:30pm 19.0 16.5 8.4 50 5.5 SSW 11 19 6 10 1016.2 1016.1 0.0
13/02:00pm 18.7 15.7 7.5 48 5.7 SSW 13 20 7 11 1016.0 1015.9 0.0
13/01:30pm 18.5 15.4 7.3 48 5.7 SW 13 22 7 12 1016.4 1016.3 0.0
13/01:00pm 18.6 15.4 8.3 51 5.3 SSW 15 24 8 13 1016.4 1016.3 0.0
13/12:30pm 18.0 14.7 8.0 52 5.1 SSW 15 28 8 15 1016.6 1016.5 0.0
13/12:00pm 17.7 14.1 8.3 54 4.8 SSW 17 28 9 15 1017.0 1016.9 0.0
13/11:30am 17.5 13.6 7.3 51 5.1 SSW 17 30 9 16 1017.2 1017.1 0.0
13/11:00am 17.0 12.5 7.1 52 4.9 SSW 20 33 11 18 1017.7 1017.6 0.0
13/10:30am 16.6 11.8 5.6 48 5.3 SSW 20 33 11 18 1018.0 1017.9 0.0
13/10:00am 15.8 11.1 5.1 49 5.1 SSW 19 32 10 17 1018.2 1018.1 0.0
13/09:30am 14.9 10.4 4.3 49 4.9 SW 17 28 9 15 1018.3 1018.2 0.0
13/09:00am 13.8 10.0 3.9 51 4.5 SW 13 22 7 12 1018.1 1018.0 0.0
13/08:30am 12.7 8.0 3.4 53 4.2 SW 17 28 9 15 1017.6 1017.5 0.0
13/08:00am 11.8 6.9 2.3 52 4.1 SW 17 26 9 14 1017.3 1017.2 0.0
13/07:30am 11.0 6.5 2.1 54 3.8 SW 15 22 8 12 1016.9 1016.8 0.0
13/07:00am 10.8 5.8 1.6 53 3.9 WSW 17 24 9 13 1016.9 1016.8 0.0
13/06:30am 10.6 5.7 1.7 54 3.8 SW 17 22 9 12 1016.3 1016.2 0.0
13/06:00am 10.6 5.7 1.7 54 3.7 SW 17 20 9 11 1016.1 1016.0 0.0
13/05:30am 10.8 5.9 2.1 55 3.7 SW 17 24 9 13 1015.6 1015.5 0.0
13/05:00am 10.9 6.0 2.2 55 3.7 SW 17 26 9 14 1015.4 1015.3 0.0
13/04:30am 10.8 6.0 2.6 57 3.5 SW 17 22 9 12 1015.2 1015.1 0.0
13/04:00am 11.1 6.7 2.7 56 3.6 SW 15 20 8 11 1015.0 1014.9 0.0
13/03:30am 11.3 7.0 5.2 66 2.8 SW 17 22 9 12 1015.1 1015.0 0.0
13/03:00am 11.6 7.0 5.7 67 2.7 SW 19 24 10 13 1015.2 1015.1 0.0
13/02:30am 11.6 7.4 5.7 67 2.7 SSW 17 26 9 14 1015.2 1015.1 0.0
13/02:00am 11.9 7.7 5.5 65 3.0 SSW 17 24 9 13 1015.1 1015.0 0.0
13/01:30am 12.1 7.8 5.3 63 3.2 SSW 17 24 9 13 1015.2 1015.1 0.0
13/01:00am 13.0 8.4 3.7 53 4.2 SW 17 22 9 12 1015.1 1015.0 0.0
13/12:30am 13.5 8.9 3.8 52 4.4 SW 17 24 9 13 1014.9 1014.8 0.0
13/12:00am 13.7 8.7 3.8 51 4.5 SSW 19 26 10 14 1014.5 1014.4 0.0
 
Date/Time
EST
Temp
°C
App
Temp
°C
Dew
Point
°C
Rel
Hum
%
Delta-T
°C
Wind Press
QNH
hPa
Press
MSL
hPa
Rain since
9am
mm
Dir  Spd
km/h
Gust
km/h
Spd
kts
Gust
kts
12/11:30pm 14.0 9.3 3.2 48 4.9 SSW 17 28 9 15 1014.6 1014.5 0.0
12/11:00pm 14.6 10.3 3.4 47 5.1 SW 15 20 8 11 1014.3 1014.2 0.0
12/10:30pm 14.9 10.3 3.7 47 5.1 SW 17 22 9 12 1014.0 1013.9 0.0
12/10:00pm 15.2 10.5 3.4 45 5.4 SW 17 24 9 13 1013.7 1013.6 0.0
12/09:30pm 15.0 10.4 3.5 46 5.2 SW 17 24 9 13 1013.3 1013.2 0.0
12/09:00pm 15.7 10.7 3.8 45 5.5 SW 19 24 10 13 1012.8 1012.8 0.0
12/08:30pm 16.3 11.8 4.4 45 5.6 SW 17 24 9 13 1012.5 1012.5 0.0
12/08:00pm 16.9 12.5 4.9 45 5.7 SSW 17 26 9 14 1012.0 1012.0 0.0
12/07:30pm 17.6 14.4 4.9 43 6.1 WSW 11 17 6 9 1011.3 1011.3 0.0
12/07:00pm 18.6 15.3 4.4 39 6.8 WSW 11 19 6 10 1010.6 1010.6 0.0
12/06:30pm 18.6 14.6 4.8 40 6.7 W 15 24 8 13 1010.0 1010.0 0.0
12/06:00pm 18.2 14.7 5.4 43 6.2 W 13 20 7 11 1009.6 1009.6 0.0
12/05:30pm 17.3 14.3 5.9 47 5.6 WNW 11 15 6 8 1009.1 1009.0 0.0
12/05:00pm 18.6 15.6 6.1 44 6.2 WNW 11 20 6 11 1008.8 1008.7 0.0
12/04:30pm 19.9 15.7 5.9 40 7.0 WNW 17 32 9 17 1008.4 1008.3 0.0
12/04:00pm 20.9 18.3 9.2 47 6.2 WNW 13 24 7 13 1008.2 1008.1 0.0
12/03:30pm 23.5 22.1 10.9 45 7.0 NW 9 17 5 9 1008.1 1008.0 0.0

Other formats

Comma delimited format used in spreadsheet applications
http://www.bom.gov.au/fwo/IDN60801/IDN60801.94598.axf

JavaScript Object Notation format (JSON) in row-major order
http://www.bom.gov.au/fwo/IDN60801/IDN60801.94598.json

Data quality

Most of these data are generated automatically and are frequently updated. Quality checks on data are not normally performed. It is possible for incorrect values to appear. Refer to information at About Latest Weather Observations and please check the disclaimer before using these data.